This is the latest recevied weather packets stored in our database for station/object KG5WBN. If no packets are shown the sender has not sent any weather packets the latest 10 day(s).
| Time | Temp. | Humidity | Pressure | Rain* | Wind** | Luminosity | Snow |
|---|---|---|---|---|---|---|---|
| 1787697542 | 25.56° C | 87% | 1014.6 hPa | 0 mm | - | 5 W/m² | - |
| 1787697238 | 25° C | 89% | 1014.6 hPa | 0 mm | - | 5 W/m² | - |
| 1787696933 | 25° C | 97% | 1014.9 hPa | 0 mm | - | 5 W/m² | - |
| 1787696629 | 24.44° C | 99% | 1014.6 hPa | 0 mm | - | 5 W/m² | - |
| 1787696325 | 24.44° C | 99% | 1014.6 hPa | 0 mm | - | 5 W/m² | - |
| 1787696019 | 24.44° C | 99% | 1014.2 hPa | 0 mm | - | 6 W/m² | - |
| 1787695712 | 24.44° C | 99% | 1014.2 hPa | 0 mm | - | 6 W/m² | - |
| 1787695409 | 25° C | 99% | 1014.6 hPa | 0 mm | - | 6 W/m² | - |
| 1787695104 | 24.44° C | 99% | 1014.9 hPa | 0 mm | - | 9 W/m² | - |
| 1787694802 | 24.44° C | 99% | 1014.9 hPa | 0 mm | - | 9 W/m² | - |
| 1787694500 | 25° C | 99% | 1014.9 hPa | 0 mm | - | 11 W/m² | - |
| 1787694198 | 25° C | 99% | 1015.2 hPa | 0 mm | - | 10 W/m² | - |
| 1787693894 | 25° C | 99% | 1014.9 hPa | 0 mm | - | 13 W/m² | - |
| 1787693590 | 25° C | 99% | 1014.9 hPa | 0 mm | - | 23 W/m² | - |
| 1787693286 | 25° C | 98% | 1014.9 hPa | 0 mm | - | 25 W/m² | - |
| 1787692982 | 25° C | 96% | 1014.9 hPa | 0 mm | - | 34 W/m² | - |
| 1787692676 | 25° C | 98% | 1014.6 hPa | 0 mm | - | 46 W/m² | - |
| 1787692372 | 26.11° C | 99% | 1014.2 hPa | 0 mm | - | 68 W/m² | - |
| 1787692071 | 26.67° C | 99% | 1013.9 hPa | 0 mm | - | 98 W/m² | - |
| 1787691766 | 26.67° C | 96% | 1013.9 hPa | 0 mm | - | 109 W/m² | - |
| 1787691465 | 26.67° C | 96% | 1013.9 hPa | 0 mm | - | 109 W/m² | - |
| 1787691164 | 26.67° C | 88% | 1014.2 hPa | 4.83 mm | - | 87 W/m² | - |
| 1787690859 | 26.67° C | 82% | 1014.2 hPa | 6.1 mm | - | 81 W/m² | - |
| 1787690559 | 28.89° C | 58% | 1014.2 hPa | 0 mm | - | 58 W/m² | - |
| 1787690254 | 29.44° C | 55% | 1014.2 hPa | 0 mm | - | 67 W/m² | - |
* Rain latest hour (hover to see other rain measurements)
** Current wind speed in m/s (hover to see current wind gust speed)